createdAt,value
2018-05-21T00:00:33.891Z,52.73
2018-05-21T00:01:34.168Z,56.40
2018-05-21T00:02:34.241Z,56.88
2018-05-21T00:03:34.435Z,56.64
2018-05-21T00:04:34.641Z,56.88
2018-05-21T00:05:34.836Z,56.15
2018-05-21T00:06:35.081Z,55.91
2018-05-21T00:07:35.130Z,52.49
2018-05-21T00:08:35.315Z,52.98
2018-05-21T00:09:35.525Z,52.98
2018-05-21T00:10:35.717Z,52.73
2018-05-21T00:11:35.926Z,54.44
2018-05-21T00:12:36.140Z,56.64
2018-05-21T00:13:36.360Z,52.98
2018-05-21T00:14:36.541Z,52.98
2018-05-21T00:15:36.839Z,56.15
2018-05-21T00:16:36.904Z,55.66
2018-05-21T00:17:37.105Z,55.42
2018-05-21T00:18:37.318Z,55.91
2018-05-21T00:19:37.523Z,56.15
2018-05-21T00:20:37.742Z,55.91
2018-05-21T00:21:37.817Z,54.44
2018-05-21T00:22:38.086Z,52.25
2018-05-21T00:23:38.154Z,55.66
2018-05-21T00:24:38.352Z,55.42
2018-05-21T00:25:38.530Z,54.69
2018-05-21T00:26:38.738Z,53.47
2018-05-21T00:27:38.948Z,55.18
2018-05-21T00:28:39.138Z,53.22
2018-05-21T00:29:39.321Z,52.98
2018-05-21T00:30:39.665Z,56.40
2018-05-21T00:31:39.726Z,56.15
2018-05-21T00:32:39.927Z,57.37
2018-05-21T00:33:40.140Z,55.91
2018-05-21T00:34:40.324Z,56.40
2018-05-21T00:35:40.527Z,56.88
2018-05-21T00:36:40.723Z,56.40
2018-05-21T00:37:40.993Z,56.15
2018-05-21T00:38:41.061Z,52.00
2018-05-21T00:39:41.243Z,52.49
2018-05-21T00:40:41.435Z,54.93
2018-05-21T00:41:41.645Z,53.47
2018-05-21T00:42:41.833Z,52.98
2018-05-21T00:43:42.043Z,55.42
2018-05-21T00:44:42.250Z,52.98
2018-05-21T00:45:42.436Z,53.96
2018-05-21T00:46:42.637Z,56.40
2018-05-21T00:47:42.831Z,56.40
2018-05-21T00:48:43.027Z,55.66
2018-05-21T00:49:43.208Z,56.15
2018-05-21T00:50:43.388Z,55.42
2018-05-21T00:51:43.586Z,55.91
2018-05-21T00:52:43.781Z,52.49
2018-05-21T00:53:43.986Z,52.73
2018-05-21T00:54:44.173Z,52.49
2018-05-21T00:55:44.361Z,52.25
2018-05-21T00:56:44.544Z,54.93
2018-05-21T00:57:44.759Z,52.73
2018-05-21T00:58:44.943Z,52.73
2018-05-21T00:59:45.137Z,53.96
2018-05-21T01:00:45.363Z,53.22
2018-05-21T01:01:45.582Z,57.13
2018-05-21T01:02:45.789Z,56.64
2018-05-21T01:03:45.973Z,55.66
2018-05-21T01:04:46.178Z,55.66
2018-05-21T01:05:46.379Z,55.91
2018-05-21T01:06:46.573Z,56.40
2018-05-21T01:07:46.761Z,56.15
2018-05-21T01:08:46.951Z,56.15
2018-05-21T01:09:47.142Z,56.88
2018-05-21T01:10:47.351Z,56.40
2018-05-21T01:11:47.562Z,55.42
2018-05-21T01:12:47.744Z,53.22
2018-05-21T01:13:48.018Z,53.47
2018-05-21T01:14:48.158Z,55.42
2018-05-21T01:15:48.369Z,56.64
2018-05-21T01:16:48.544Z,55.66
2018-05-21T01:17:48.732Z,53.96
2018-05-21T01:18:48.934Z,54.69
2018-05-21T01:19:49.138Z,57.62
2018-05-21T01:20:49.334Z,56.15
2018-05-21T01:21:49.560Z,53.71
2018-05-21T01:22:49.618Z,53.71
2018-05-21T01:23:49.832Z,55.66
2018-05-21T01:24:50.016Z,56.40
2018-05-21T01:25:50.202Z,55.18
2018-05-21T01:26:50.394Z,54.69
2018-05-21T01:27:50.581Z,54.69
2018-05-21T01:28:50.764Z,56.15
2018-05-21T01:29:50.965Z,56.40
2018-05-21T01:30:51.155Z,56.40
2018-05-21T01:31:51.345Z,55.66
2018-05-21T01:32:51.563Z,54.20
2018-05-21T01:34:00.881Z,53.47
2018-05-21T01:34:59.930Z,55.91
2018-05-21T01:35:51.997Z,57.13
2018-05-21T01:37:00.072Z,56.15
2018-05-21T01:37:52.372Z,53.22
2018-05-21T01:39:00.193Z,53.47
2018-05-21T01:40:00.250Z,55.42
2018-05-21T01:41:00.324Z,56.64
2018-05-21T01:42:01.392Z,52.73
2018-05-21T01:42:53.314Z,53.22
2018-05-21T01:43:53.535Z,56.15
2018-05-21T01:44:53.745Z,56.88
2018-05-21T01:45:53.933Z,56.40
2018-05-21T01:46:54.125Z,55.66
2018-05-21T01:47:54.330Z,53.71
2018-05-21T01:48:54.523Z,53.71
2018-05-21T01:49:54.715Z,56.40
2018-05-21T01:50:54.901Z,56.64
2018-05-21T01:51:55.108Z,53.47
2018-05-21T01:52:55.291Z,53.96
2018-05-21T01:53:55.476Z,56.88
2018-05-21T01:54:55.684Z,57.13
2018-05-21T01:55:55.879Z,56.40
2018-05-21T01:56:56.085Z,57.37
2018-05-21T01:57:56.285Z,56.15
2018-05-21T01:58:56.469Z,54.44
2018-05-21T01:59:56.705Z,53.71
2018-05-21T02:00:56.777Z,56.15
2018-05-21T02:01:56.966Z,55.91
2018-05-21T02:02:57.165Z,53.96
2018-05-21T02:03:57.350Z,53.71
2018-05-21T02:04:57.554Z,53.96
2018-05-21T02:05:57.749Z,54.20
2018-05-21T02:06:57.942Z,53.96
2018-05-21T02:07:58.130Z,56.40
2018-05-21T02:08:58.359Z,56.64
2018-05-21T02:09:58.437Z,56.64
2018-05-21T02:10:58.633Z,53.96
2018-05-21T02:11:58.830Z,54.20
2018-05-21T02:12:59.022Z,56.15
2018-05-21T02:13:59.214Z,56.64
2018-05-21T02:14:59.412Z,56.64
2018-05-21T02:15:59.605Z,53.96
2018-05-21T02:16:59.815Z,54.20
2018-05-21T02:18:00.023Z,57.13
2018-05-21T02:19:00.206Z,56.15
2018-05-21T02:20:00.496Z,54.44
2018-05-21T02:21:00.651Z,56.15
2018-05-21T02:22:00.804Z,58.84
2018-05-21T02:23:01.011Z,58.11
2018-05-21T02:24:01.228Z,58.11
2018-05-21T02:25:01.431Z,55.91
2018-05-21T02:26:01.645Z,57.13
2018-05-21T02:27:01.899Z,59.08
2018-05-21T02:28:02.038Z,58.59
2018-05-21T02:29:02.235Z,57.13
2018-05-21T02:30:02.420Z,57.86
2018-05-21T02:31:02.625Z,58.11
2018-05-21T02:32:02.843Z,58.35
2018-05-21T02:33:03.041Z,58.59
2018-05-21T02:34:03.270Z,57.62
2018-05-21T02:35:03.457Z,54.69
2018-05-21T02:36:03.653Z,56.64
2018-05-21T02:37:03.864Z,56.88
2018-05-21T02:38:04.070Z,57.37
2018-05-21T02:39:04.277Z,58.59
2018-05-21T02:40:04.490Z,57.62
2018-05-21T02:41:04.687Z,64.45
2018-05-21T02:42:04.898Z,63.96
2018-05-21T02:43:05.088Z,64.70
2018-05-21T02:44:05.276Z,62.26
2018-05-21T02:45:05.566Z,57.62
2018-05-21T02:46:05.697Z,59.81
2018-05-21T02:47:05.897Z,66.89
2018-05-21T02:48:06.086Z,71.04
2018-05-21T02:49:06.285Z,55.18
2018-05-21T02:50:06.528Z,56.64
2018-05-21T02:51:06.590Z,62.74
2018-05-21T02:52:06.807Z,63.96
2018-05-21T02:53:07.066Z,66.65
2018-05-21T02:54:07.152Z,70.31
2018-05-21T02:55:07.333Z,71.78
2018-05-21T02:56:07.524Z,65.92
2018-05-21T02:57:07.740Z,62.50
2018-05-21T02:58:07.930Z,65.43
2018-05-21T02:59:08.141Z,67.38
2018-05-21T03:00:08.343Z,68.12
2018-05-21T03:01:08.542Z,67.38
2018-05-21T03:02:08.764Z,68.60
2018-05-21T03:03:08.938Z,67.63
2018-05-21T03:04:09.160Z,70.56
2018-05-21T03:05:09.357Z,69.82
2018-05-21T03:06:09.610Z,67.63
2018-05-21T03:07:09.696Z,61.04
2018-05-21T03:08:09.898Z,60.55
2018-05-21T03:09:10.088Z,65.67
2018-05-21T03:10:10.278Z,61.28
2018-05-21T03:11:10.494Z,61.52
2018-05-21T03:12:10.730Z,67.38
2018-05-21T03:13:10.926Z,69.34
2018-05-21T03:14:11.132Z,67.38
2018-05-21T03:15:11.336Z,67.87
2018-05-21T03:16:11.560Z,69.34
2018-05-21T03:17:11.759Z,68.12
2018-05-21T03:18:11.953Z,67.87
2018-05-21T03:19:12.127Z,67.87
2018-05-21T03:20:12.327Z,56.88
2018-05-21T03:21:12.518Z,55.42
2018-05-21T03:22:12.732Z,57.62
2018-05-21T03:23:12.956Z,55.42
2018-05-21T03:24:13.148Z,56.40
2018-05-21T03:25:13.362Z,56.64
2018-05-21T03:26:13.547Z,54.93
2018-05-21T03:27:13.749Z,57.13
2018-05-21T03:28:13.973Z,60.30
2018-05-21T03:29:14.049Z,63.96
2018-05-21T03:30:14.251Z,65.92
2018-05-21T03:31:14.431Z,66.16
2018-05-21T03:32:14.657Z,64.70
2018-05-21T03:33:14.849Z,65.67
2018-05-21T03:34:15.045Z,66.65
2018-05-21T03:35:15.284Z,67.63
2018-05-21T03:36:15.359Z,67.87
2018-05-21T03:37:15.819Z,65.92
2018-05-21T03:38:15.887Z,66.16
2018-05-21T03:39:16.166Z,69.82
2018-05-21T03:40:16.273Z,68.60
2018-05-21T03:41:16.340Z,59.81
2018-05-21T03:42:16.537Z,61.04
2018-05-21T03:43:16.518Z,56.15
2018-05-21T03:44:16.712Z,55.42
2018-05-21T03:45:16.923Z,56.64
2018-05-21T03:46:17.115Z,58.59
2018-05-21T03:47:17.329Z,57.62
2018-05-21T03:48:17.652Z,57.62
2018-05-21T03:49:17.746Z,55.42
2018-05-21T03:50:17.961Z,57.86
2018-05-21T03:51:18.168Z,55.42
2018-05-21T03:52:25.856Z,54.93
2018-05-21T03:53:25.939Z,57.13
2018-05-21T03:54:18.750Z,60.55
2018-05-21T03:55:18.967Z,60.55
2018-05-21T03:56:19.162Z,60.79
2018-05-21T03:57:27.057Z,58.11
2018-05-21T03:58:19.517Z,59.57
2018-05-21T03:59:19.712Z,55.66
2018-05-21T04:00:19.938Z,56.64
2018-05-21T04:01:20.013Z,57.62
2018-05-21T04:02:20.204Z,57.37
2018-05-21T04:03:20.420Z,57.37
2018-05-21T04:04:20.629Z,57.86
2018-05-21T04:05:20.827Z,56.88
2018-05-21T04:06:21.014Z,55.42
2018-05-21T04:07:21.227Z,55.42
2018-05-21T04:08:21.669Z,57.62
2018-05-21T04:09:21.629Z,58.59
2018-05-21T04:10:21.829Z,56.15
2018-05-21T04:11:22.036Z,58.35
2018-05-21T04:12:22.219Z,58.11
2018-05-21T04:13:22.449Z,58.11
2018-05-21T04:14:22.567Z,57.13
2018-05-21T04:15:22.647Z,58.59
2018-05-21T04:16:22.886Z,58.84
2018-05-21T04:17:22.960Z,60.55
2018-05-21T04:18:23.160Z,58.59
2018-05-21T04:19:23.374Z,58.11
2018-05-21T04:20:23.602Z,57.86
2018-05-21T04:21:23.711Z,55.91
2018-05-21T04:22:23.784Z,55.91
2018-05-21T04:23:24.012Z,55.42
2018-05-21T04:24:24.207Z,56.64
2018-05-21T04:25:24.459Z,56.64
2018-05-21T04:26:24.525Z,56.40
2018-05-21T04:27:24.721Z,58.11
2018-05-21T04:28:24.920Z,58.11
2018-05-21T04:29:25.128Z,58.11
2018-05-21T04:30:25.331Z,55.18
2018-05-21T04:31:25.555Z,58.59
2018-05-21T04:32:25.736Z,59.33
2018-05-21T04:33:25.931Z,56.64
2018-05-21T04:34:26.111Z,59.33
2018-05-21T04:35:26.308Z,56.88
2018-05-21T04:36:26.494Z,56.64
2018-05-21T04:37:26.675Z,54.69
2018-05-21T04:38:26.865Z,62.26
2018-05-21T04:39:27.059Z,57.86
2018-05-21T04:40:27.251Z,55.42
2018-05-21T04:41:27.429Z,56.88
2018-05-21T04:42:27.632Z,58.11
2018-05-21T04:43:27.841Z,57.37
2018-05-21T04:44:28.052Z,61.04
2018-05-21T04:45:29.108Z,61.52
2018-05-21T04:46:28.449Z,60.30
2018-05-21T04:47:28.529Z,59.33
2018-05-21T04:48:28.723Z,60.06
2018-05-21T04:49:28.942Z,57.37
2018-05-21T04:50:29.028Z,57.62
2018-05-21T04:51:29.367Z,63.72
2018-05-21T04:52:29.611Z,58.11
2018-05-21T04:53:29.562Z,60.55
2018-05-21T04:54:29.876Z,58.84
2018-05-21T04:55:30.113Z,55.42
2018-05-21T04:56:30.153Z,55.66
2018-05-21T04:57:30.232Z,57.62
2018-05-21T04:58:30.415Z,57.86
2018-05-21T04:59:30.619Z,64.70
2018-05-21T05:00:30.820Z,55.18
2018-05-21T05:01:31.071Z,58.11
2018-05-21T05:02:31.159Z,59.08
2018-05-21T05:03:31.373Z,57.62
2018-05-21T05:04:31.579Z,58.59
2018-05-21T05:05:31.762Z,57.62
2018-05-21T05:06:31.964Z,56.88
2018-05-21T05:07:32.182Z,56.64
2018-05-21T05:08:32.380Z,65.67
2018-05-21T05:09:32.568Z,61.04
2018-05-21T05:10:32.773Z,58.84
2018-05-21T05:11:33.076Z,63.48
2018-05-21T05:12:33.103Z,59.81
2018-05-21T05:13:33.539Z,63.72
2018-05-21T05:14:33.412Z,58.11
2018-05-21T05:15:33.623Z,54.20
2018-05-21T05:16:33.839Z,62.99
2018-05-21T05:17:34.107Z,66.41
2018-05-21T05:18:34.151Z,69.82
2018-05-21T05:19:34.347Z,58.84
2018-05-21T05:20:34.542Z,58.59
2018-05-21T05:21:34.734Z,56.88
2018-05-21T05:22:34.934Z,53.71
2018-05-21T05:23:35.131Z,54.44
2018-05-21T05:24:35.326Z,58.59
2018-05-21T05:25:35.555Z,61.77
2018-05-21T05:26:35.706Z,60.79
2018-05-21T05:27:35.843Z,56.88
2018-05-21T05:28:36.033Z,57.13
2018-05-21T05:29:36.243Z,53.96
2018-05-21T05:30:36.432Z,53.71
2018-05-21T05:31:36.658Z,58.11
2018-05-21T05:32:36.850Z,53.47
2018-05-21T05:33:37.060Z,63.96
2018-05-21T05:34:37.246Z,54.93
2018-05-21T05:35:37.425Z,55.18
2018-05-21T05:36:37.632Z,55.42
2018-05-21T05:37:37.837Z,62.99
2018-05-21T05:38:38.026Z,62.26
2018-05-21T05:39:38.214Z,56.64
2018-05-21T05:40:38.402Z,56.40
2018-05-21T05:41:38.621Z,55.66
2018-05-21T05:42:38.801Z,56.64
2018-05-21T05:43:39.011Z,56.88
2018-05-21T05:44:39.222Z,56.15
2018-05-21T05:45:39.429Z,56.40
2018-05-21T05:46:39.617Z,56.88
2018-05-21T05:47:39.829Z,56.88
2018-05-21T05:48:40.034Z,58.59
2018-05-21T05:49:40.214Z,56.15
2018-05-21T05:50:40.409Z,57.13
2018-05-21T05:51:40.599Z,56.15
2018-05-21T05:52:40.788Z,56.88
2018-05-21T05:53:40.980Z,59.33
2018-05-21T05:54:41.166Z,50.29
2018-05-21T05:55:41.363Z,50.29
2018-05-21T05:56:44.400Z,54.69
2018-05-21T05:57:41.722Z,58.59
2018-05-21T05:58:41.791Z,55.91
2018-05-21T05:59:41.986Z,54.20
2018-05-21T06:00:42.178Z,53.96
2018-05-21T06:01:42.388Z,53.71
2018-05-21T06:02:45.108Z,58.11
2018-05-21T06:03:42.723Z,53.22
2018-05-21T06:04:42.908Z,57.13
2018-05-21T06:05:43.095Z,59.57
2018-05-21T06:06:43.297Z,53.22
2018-05-21T06:07:43.530Z,53.71
2018-05-21T06:08:43.598Z,55.42
2018-05-21T06:09:43.799Z,58.11
2018-05-21T06:10:43.985Z,54.44
2018-05-21T06:11:44.187Z,58.59
2018-05-21T06:12:44.374Z,55.42
2018-05-21T06:13:44.593Z,54.44
2018-05-21T06:14:44.756Z,55.18
2018-05-21T06:15:45.498Z,53.71
2018-05-21T06:16:53.004Z,55.18
2018-05-21T06:17:45.312Z,59.33
2018-05-21T06:18:45.508Z,55.66
2018-05-21T06:19:45.714Z,55.66
2018-05-21T06:20:45.903Z,55.66
2018-05-21T06:21:46.141Z,49.32
2018-05-21T06:22:46.232Z,56.40
2018-05-21T06:23:46.430Z,56.64
2018-05-21T06:24:46.621Z,70.80
2018-05-21T06:25:46.897Z,54.20
2018-05-21T06:26:46.929Z,52.49
2018-05-21T06:27:47.119Z,52.73
2018-05-21T06:28:47.335Z,57.62
2018-05-21T06:29:47.535Z,57.37
2018-05-21T06:30:47.730Z,52.98
2018-05-21T06:31:47.928Z,52.73
2018-05-21T06:32:48.112Z,57.13
2018-05-21T06:33:48.346Z,59.33
2018-05-21T06:34:48.536Z,56.40
2018-05-21T06:35:48.726Z,53.96
2018-05-21T06:36:48.913Z,52.98
2018-05-21T06:37:49.096Z,55.66
2018-05-21T06:38:49.294Z,54.20
2018-05-21T06:39:49.498Z,57.86
2018-05-21T06:40:49.692Z,52.25
2018-05-21T06:41:49.889Z,51.76
2018-05-21T06:42:50.104Z,61.28
2018-05-21T06:43:50.309Z,69.82
2018-05-21T06:44:50.501Z,53.71
2018-05-21T06:45:50.708Z,52.00
2018-05-21T06:46:50.913Z,52.98
2018-05-21T06:47:51.148Z,52.25
2018-05-21T06:48:51.321Z,52.00
2018-05-21T06:49:51.516Z,59.57
2018-05-21T06:50:51.718Z,56.64
2018-05-21T06:51:51.907Z,56.64
2018-05-21T06:52:52.389Z,55.18
2018-05-21T06:53:52.329Z,60.55
2018-05-21T06:54:52.536Z,62.50
2018-05-21T06:55:52.734Z,51.76
2018-05-21T06:56:52.926Z,68.85
2018-05-21T06:57:53.122Z,51.51
2018-05-21T06:58:53.309Z,58.84
2018-05-21T06:59:53.568Z,51.51
2018-05-21T07:00:53.698Z,51.03
2018-05-21T07:01:53.902Z,46.88
2018-05-21T07:02:54.136Z,43.70
2018-05-21T07:03:54.296Z,54.44
2018-05-21T07:04:54.507Z,51.76
2018-05-21T07:05:54.723Z,52.49
2018-05-21T07:06:54.923Z,53.22
2018-05-21T07:07:55.172Z,52.00
2018-05-21T07:08:55.331Z,51.51
2018-05-21T07:09:55.536Z,52.00
2018-05-21T07:10:55.749Z,53.22
2018-05-21T07:11:55.962Z,51.03
2018-05-21T07:12:56.157Z,51.51
2018-05-21T07:13:56.358Z,54.69
2018-05-21T07:14:56.574Z,52.00
2018-05-21T07:15:56.778Z,51.03
2018-05-21T07:16:56.979Z,51.03
2018-05-21T07:17:57.175Z,51.03
2018-05-21T07:18:57.400Z,56.15
2018-05-21T07:19:57.615Z,52.98
2018-05-21T07:20:57.825Z,53.71
2018-05-21T07:21:58.015Z,52.00
2018-05-21T07:22:58.225Z,50.54
2018-05-21T07:23:58.428Z,50.54
2018-05-21T07:24:58.628Z,51.27
2018-05-21T07:25:58.834Z,52.00
2018-05-21T07:26:59.038Z,48.34
2018-05-21T07:27:59.242Z,46.14
2018-05-21T07:28:59.447Z,53.22
2018-05-21T07:29:59.652Z,50.29
2018-05-21T07:30:59.852Z,49.80
2018-05-21T07:32:00.043Z,50.29
2018-05-21T07:33:00.244Z,54.20
2018-05-21T07:34:00.443Z,50.78
2018-05-21T07:35:00.640Z,50.05
2018-05-21T07:36:00.843Z,51.27
2018-05-21T07:37:01.055Z,50.05
2018-05-21T07:38:01.278Z,50.05
2018-05-21T07:39:01.483Z,49.80
2018-05-21T07:40:01.671Z,50.29
2018-05-21T07:41:01.900Z,56.88
2018-05-21T07:42:02.086Z,52.00
2018-05-21T07:43:02.290Z,51.76
2018-05-21T07:44:02.492Z,56.15
2018-05-21T07:45:02.684Z,57.86
2018-05-21T07:46:02.888Z,52.49
2018-05-21T07:47:03.093Z,57.13
2018-05-21T07:48:03.296Z,56.64
2018-05-21T07:49:03.491Z,55.91
2018-05-21T07:50:03.693Z,54.93
2018-05-21T07:51:03.896Z,50.29
2018-05-21T07:52:04.089Z,46.88
2018-05-21T07:53:04.289Z,48.34
2018-05-21T07:54:04.489Z,61.52
2018-05-21T07:55:04.691Z,56.64
2018-05-21T07:56:04.905Z,51.27
2018-05-21T07:57:05.101Z,50.54
2018-05-21T07:58:05.306Z,50.54
2018-05-21T07:59:05.506Z,50.29
2018-05-21T08:00:05.722Z,50.78
2018-05-21T08:01:05.936Z,50.54
2018-05-21T08:02:06.137Z,50.54
2018-05-21T08:03:06.346Z,50.05
2018-05-21T08:04:06.551Z,50.05
2018-05-21T08:05:06.789Z,52.73
2018-05-21T08:06:06.987Z,50.29
2018-05-21T08:07:07.193Z,51.03
2018-05-21T08:08:07.394Z,49.80
2018-05-21T08:09:07.646Z,51.76
2018-05-21T08:10:07.792Z,55.42
2018-05-21T08:11:07.972Z,49.80
2018-05-21T08:12:08.177Z,50.54
2018-05-21T08:13:08.379Z,50.05
2018-05-21T08:14:08.585Z,50.05
2018-05-21T08:15:08.787Z,52.98
2018-05-21T08:16:09.031Z,53.96
2018-05-21T08:17:09.122Z,52.25
2018-05-21T08:18:09.341Z,50.78
2018-05-21T08:19:09.541Z,51.27
2018-05-21T08:20:09.755Z,56.88
2018-05-21T08:21:09.966Z,58.11
2018-05-21T08:22:10.246Z,51.27
2018-05-21T08:23:10.390Z,51.27
2018-05-21T08:24:11.964Z,52.00
2018-05-21T08:25:10.774Z,51.27
2018-05-21T08:26:10.978Z,51.27
2018-05-21T08:27:11.211Z,50.78
2018-05-21T08:28:11.371Z,50.29
2018-05-21T08:29:11.603Z,51.76
2018-05-21T08:30:11.795Z,51.76
2018-05-21T08:31:12.064Z,50.78
2018-05-21T08:32:12.217Z,51.03
2018-05-21T08:33:12.419Z,50.78
2018-05-21T08:34:12.614Z,51.03
2018-05-21T08:35:12.818Z,51.51
2018-05-21T08:36:13.050Z,54.20
2018-05-21T08:37:13.252Z,53.96
2018-05-21T08:38:13.480Z,49.56
2018-05-21T08:39:13.665Z,50.54
2018-05-21T08:40:13.861Z,60.79
2018-05-21T08:41:14.069Z,52.25
2018-05-21T08:42:14.263Z,51.76
2018-05-21T08:43:14.485Z,50.29
2018-05-21T08:44:14.719Z,49.80
2018-05-21T08:45:14.905Z,58.84
2018-05-21T08:46:15.101Z,51.76
2018-05-21T08:47:15.363Z,50.29
2018-05-21T08:48:15.559Z,50.29
2018-05-21T08:49:15.785Z,52.49
2018-05-21T08:50:15.965Z,51.76
2018-05-21T08:51:16.161Z,51.51
2018-05-21T08:52:16.419Z,56.15
2018-05-21T08:53:16.606Z,52.73
2018-05-21T08:54:16.794Z,52.00
2018-05-21T08:55:17.059Z,55.18
2018-05-21T08:56:17.194Z,52.25
2018-05-21T08:57:17.411Z,51.51
2018-05-21T08:58:17.607Z,55.42
2018-05-21T08:59:17.804Z,52.00
2018-05-21T09:00:18.060Z,52.49
2018-05-21T09:01:18.212Z,52.73
2018-05-21T09:02:18.418Z,54.20
2018-05-21T09:03:18.660Z,52.25
2018-05-21T09:04:18.869Z,51.76
2018-05-21T09:05:19.080Z,52.25
2018-05-21T09:06:19.415Z,51.51
2018-05-21T09:07:19.496Z,51.76
2018-05-21T09:08:19.698Z,52.00
2018-05-21T09:09:19.883Z,56.64
2018-05-21T09:10:20.092Z,56.64
2018-05-21T09:11:20.287Z,51.27
2018-05-21T09:12:20.519Z,51.76
2018-05-21T09:13:20.684Z,52.98
2018-05-21T09:14:20.888Z,53.47
2018-05-21T09:15:21.098Z,53.96
2018-05-21T09:16:21.305Z,52.25
2018-05-21T09:17:21.747Z,52.49
2018-05-21T09:18:21.898Z,51.03
2018-05-21T09:19:22.053Z,51.27
2018-05-21T09:20:22.040Z,54.69
2018-05-21T09:21:22.223Z,53.22
2018-05-21T09:22:22.441Z,52.73
2018-05-21T09:23:22.663Z,52.00
2018-05-21T09:24:23.006Z,56.40
2018-05-21T09:25:23.022Z,53.71
2018-05-21T09:26:23.294Z,53.96
2018-05-21T09:27:23.446Z,54.20
2018-05-21T09:28:23.553Z,54.69
2018-05-21T09:29:23.967Z,54.93
2018-05-21T09:30:23.873Z,56.15
2018-05-21T09:31:24.016Z,55.18
2018-05-21T09:32:24.224Z,53.47
2018-05-21T09:33:24.424Z,53.22
2018-05-21T09:34:24.635Z,52.49
2018-05-21T09:35:24.912Z,52.25
2018-05-21T09:36:25.149Z,53.47
2018-05-21T09:37:25.282Z,53.22
2018-05-21T09:38:26.461Z,54.44
2018-05-21T09:39:25.851Z,67.87
2018-05-21T09:40:27.355Z,58.11
2018-05-21T09:41:27.153Z,54.44
2018-05-21T09:42:29.589Z,53.47
2018-05-21T09:43:29.935Z,51.76
2018-05-21T09:44:28.597Z,56.40
2018-05-21T09:45:27.189Z,58.11
2018-05-21T09:46:27.445Z,61.52
2018-05-21T09:47:28.012Z,56.40
2018-05-21T09:48:28.392Z,54.44
2018-05-21T09:49:28.860Z,56.15
2018-05-21T09:50:27.459Z,55.18
2018-05-21T09:51:29.928Z,56.64
2018-05-21T09:52:29.248Z,57.13
2018-05-21T09:53:29.551Z,53.47
2018-05-21T09:54:29.335Z,56.88
2018-05-21T09:55:30.077Z,53.96
2018-05-21T09:56:30.985Z,59.57
2018-05-21T09:57:28.669Z,61.04
2018-05-21T09:58:31.140Z,56.15
2018-05-21T09:59:34.067Z,64.70
2018-05-21T10:00:29.098Z,56.15
2018-05-21T10:01:29.294Z,54.20
2018-05-21T10:02:29.568Z,53.96
2018-05-21T10:03:29.644Z,52.73
2018-05-21T10:04:29.854Z,57.13
2018-05-21T10:05:30.080Z,52.73
2018-05-21T10:06:30.282Z,58.84
2018-05-21T10:07:30.492Z,53.47
2018-05-21T10:08:30.716Z,55.91
2018-05-21T10:09:30.922Z,53.47
2018-05-21T10:10:31.316Z,53.47
2018-05-21T10:11:31.269Z,54.93
2018-05-21T10:12:31.497Z,59.57
2018-05-21T10:13:31.757Z,55.66
2018-05-21T10:14:31.835Z,55.66
2018-05-21T10:15:32.076Z,55.66
2018-05-21T10:16:32.360Z,56.88
2018-05-21T10:17:32.479Z,56.64
2018-05-21T10:18:32.584Z,58.59
2018-05-21T10:19:32.788Z,54.69
2018-05-21T10:20:32.777Z,55.18
2018-05-21T10:21:33.128Z,53.96
2018-05-21T10:22:33.159Z,57.62
2018-05-21T10:23:33.393Z,54.69
2018-05-21T10:24:33.662Z,54.44
2018-05-21T10:25:33.765Z,55.91
2018-05-21T10:26:33.994Z,54.69
2018-05-21T10:27:34.280Z,55.66
2018-05-21T10:28:34.424Z,58.11
2018-05-21T10:29:34.490Z,55.42
2018-05-21T10:30:34.725Z,55.18
2018-05-21T10:31:34.855Z,54.44
2018-05-21T10:32:34.947Z,60.06
2018-05-21T10:33:35.193Z,57.13
2018-05-21T10:34:35.301Z,55.66
2018-05-21T10:35:35.491Z,54.69
2018-05-21T10:36:35.696Z,54.44
2018-05-21T10:37:35.885Z,53.47
2018-05-21T10:38:36.084Z,58.84
2018-05-21T10:39:36.275Z,53.71
2018-05-21T10:40:36.471Z,57.37
2018-05-21T10:41:36.673Z,56.40
2018-05-21T10:42:45.021Z,54.93
2018-05-21T10:43:37.093Z,54.93
2018-05-21T10:44:37.317Z,53.71
2018-05-21T10:45:46.226Z,53.96
2018-05-21T10:46:37.739Z,59.33
2018-05-21T10:47:37.833Z,57.86
2018-05-21T10:48:45.904Z,53.71
2018-05-21T10:49:38.243Z,56.88
2018-05-21T10:50:38.459Z,55.91
2018-05-21T10:51:38.723Z,56.15
2018-05-21T10:52:38.799Z,58.35
2018-05-21T10:53:39.048Z,56.88
2018-05-21T10:54:39.136Z,58.35
2018-05-21T10:55:39.388Z,55.18
2018-05-21T10:56:39.463Z,57.13
2018-05-21T10:57:39.800Z,56.15
2018-05-21T10:58:39.830Z,57.62
2018-05-21T10:59:39.959Z,71.04
2018-05-21T11:00:40.079Z,55.42
2018-05-21T11:01:40.189Z,54.20
2018-05-21T11:02:40.412Z,55.42
2018-05-21T11:03:40.639Z,59.81
2018-05-21T11:04:40.740Z,59.08
2018-05-21T11:05:41.044Z,58.59
2018-05-21T11:06:41.179Z,55.18
2018-05-21T11:07:41.332Z,56.64
2018-05-21T11:08:41.479Z,55.42
2018-05-21T11:09:41.571Z,55.91
2018-05-21T11:10:41.844Z,55.42
2018-05-21T11:11:41.938Z,60.55
2018-05-21T11:12:42.150Z,54.69
2018-05-21T11:13:42.409Z,55.91
2018-05-21T11:14:42.564Z,54.93
2018-05-21T11:15:42.664Z,58.84
2018-05-21T11:16:42.791Z,56.64
2018-05-21T11:17:42.910Z,57.62
2018-05-21T11:18:43.013Z,55.91
2018-05-21T11:19:43.326Z,56.15
2018-05-21T11:20:43.472Z,69.34
2018-05-21T11:21:43.581Z,55.66
2018-05-21T11:22:43.784Z,54.44
2018-05-21T11:23:43.927Z,57.86
2018-05-21T11:24:44.127Z,55.91
2018-05-21T11:25:44.185Z,56.64
2018-05-21T11:26:44.331Z,55.18
2018-05-21T11:27:44.464Z,57.13
2018-05-21T11:28:44.586Z,54.93
2018-05-21T11:29:44.690Z,57.13
2018-05-21T11:30:44.914Z,58.11
2018-05-21T11:31:45.110Z,55.66
2018-05-21T11:32:45.307Z,56.64
2018-05-21T11:33:45.661Z,58.59
2018-05-21T11:34:45.765Z,55.66
2018-05-21T11:35:45.907Z,55.66
2018-05-21T11:36:46.181Z,56.64
2018-05-21T11:37:46.203Z,58.59
2018-05-21T11:38:46.312Z,57.37
2018-05-21T11:39:46.412Z,55.66
2018-05-21T11:40:46.703Z,56.15
2018-05-21T11:41:46.951Z,55.18
2018-05-21T11:42:47.060Z,55.66
2018-05-21T11:43:47.155Z,56.64
2018-05-21T11:44:47.251Z,58.35
2018-05-21T11:45:47.367Z,57.13
2018-05-21T11:46:47.555Z,55.18
2018-05-21T11:47:47.695Z,55.18
2018-05-21T11:48:47.805Z,68.36
2018-05-21T11:49:47.995Z,54.93
2018-05-21T11:50:48.298Z,56.64
2018-05-21T11:51:48.376Z,57.13
2018-05-21T11:52:48.671Z,56.88
2018-05-21T11:53:48.790Z,56.15
2018-05-21T11:54:48.897Z,56.64
2018-05-21T11:55:49.119Z,57.13
2018-05-21T11:56:49.399Z,54.93
2018-05-21T11:57:49.507Z,55.91
2018-05-21T11:58:49.751Z,56.40
2018-05-21T11:59:49.862Z,64.21
2018-05-21T12:00:50.155Z,54.20
2018-05-21T12:01:50.238Z,54.69
2018-05-21T12:02:50.460Z,54.93
2018-05-21T12:03:50.693Z,54.69
2018-05-21T12:04:50.952Z,55.66
2018-05-21T12:05:51.055Z,57.37
2018-05-21T12:06:51.255Z,55.42
2018-05-21T12:07:51.474Z,51.27
2018-05-21T12:08:51.776Z,57.13
2018-05-21T12:09:51.872Z,57.13
2018-05-21T12:10:52.287Z,54.44
2018-05-21T12:11:52.245Z,53.96
2018-05-21T12:12:52.458Z,54.44
2018-05-21T12:13:52.712Z,55.66
2018-05-21T12:14:52.844Z,54.93
2018-05-21T12:15:53.100Z,56.88
2018-05-21T12:16:53.153Z,58.84
2018-05-21T12:17:53.324Z,55.42
2018-05-21T12:18:53.437Z,57.37
2018-05-21T12:19:53.542Z,58.35
2018-05-21T12:20:53.766Z,54.44
2018-05-21T12:21:54.075Z,56.15
2018-05-21T12:22:54.217Z,53.96
2018-05-21T12:23:54.294Z,55.91
2018-05-21T12:24:54.532Z,54.44
2018-05-21T12:25:54.619Z,54.44
2018-05-21T12:26:54.867Z,55.18
2018-05-21T12:27:54.961Z,55.18
2018-05-21T12:28:55.212Z,55.18
2018-05-21T12:29:55.292Z,55.66
2018-05-21T12:30:55.506Z,55.66
2018-05-21T12:31:55.745Z,54.20
2018-05-21T12:32:55.911Z,54.69
2018-05-21T12:33:56.023Z,57.37
2018-05-21T12:34:56.121Z,56.40
2018-05-21T12:35:56.332Z,53.96
2018-05-21T12:36:56.611Z,54.44
2018-05-21T12:37:56.769Z,54.69
2018-05-21T12:38:56.846Z,54.93
2018-05-21T12:39:57.086Z,54.93
2018-05-21T12:40:57.212Z,54.44
2018-05-21T12:41:57.331Z,58.35
2018-05-21T12:42:57.497Z,55.66
2018-05-21T12:43:57.617Z,57.37
2018-05-21T12:44:57.725Z,57.13
2018-05-21T12:45:57.844Z,53.96
2018-05-21T12:46:58.155Z,55.18
2018-05-21T12:47:58.221Z,55.66
2018-05-21T12:48:58.355Z,55.66
2018-05-21T12:49:58.454Z,55.18
2018-05-21T12:50:58.671Z,55.18
2018-05-21T12:51:58.941Z,56.88
2018-05-21T12:52:59.014Z,55.18
2018-05-21T12:53:59.272Z,55.66
2018-05-21T12:54:59.377Z,58.35